This is the latest recevied weather packets stored in our database for station/object KC1OEK-13. If no packets are shown the sender has not sent any weather packets the latest 10 day(s).
| Time | Temp. | Humidity | Pressure | Rain* | Wind** | Luminosity | Snow |
|---|---|---|---|---|---|---|---|
| 1787510654 | 26.67° C | 75% | 1010.9 hPa | 0 mm | - | 418 W/m² | - |
| 1787510350 | 27.78° C | 73% | 1011.1 hPa | 0 mm | - | 752 W/m² | - |
| 1787510046 | 27.78° C | 72% | 1011.1 hPa | 0 mm | - | 756 W/m² | - |
| 1787509741 | 27.22° C | 75% | 1011.1 hPa | 0 mm | - | 729 W/m² | - |
| 1787509438 | 27.22° C | 75% | 1011.1 hPa | 0 mm | - | 740 W/m² | - |
| 1787509134 | 27.78° C | 74% | 1011.1 hPa | 0 mm | - | 434 W/m² | - |
| 1787508829 | 26.67° C | 75% | 1011.4 hPa | 0 mm | - | 757 W/m² | - |
| 1787508524 | 27.22° C | 75% | 1011.5 hPa | 0 mm | - | 182 W/m² | - |
| 1787508221 | 27.22° C | 75% | 1011.4 hPa | 0 mm | - | 391 W/m² | - |
| 1787507916 | 27.78° C | 72% | 1011.5 hPa | 0 mm | - | 789 W/m² | - |
| 1787507613 | 26.11° C | 77% | 1011.6 hPa | 0 mm | - | 819 W/m² | - |
| 1787507308 | 25.56° C | 76% | 1011.7 hPa | 0 mm | - | 241 W/m² | - |
| 1787507004 | 26.11° C | 76% | 1011.5 hPa | 0 mm | - | 771 W/m² | - |
| 1787506699 | 25.56° C | 75% | 1011.6 hPa | 0 mm | - | 796 W/m² | - |
| 1787506396 | 26.11° C | 76% | 1011.8 hPa | 0 mm | - | 790 W/m² | - |
| 1787506091 | 26.11° C | 76% | 1011.7 hPa | 0 mm | - | 809 W/m² | - |
| 1787505787 | 25° C | 78% | 1011.9 hPa | 0 mm | - | 777 W/m² | - |
| 1787505481 | 25° C | 77% | 1011.7 hPa | 0 mm | - | 785 W/m² | - |
| 1787505176 | 25.56° C | 79% | 1011.9 hPa | 0 mm | - | 743 W/m² | - |
| 1787504870 | 24.44° C | 82% | 1011.9 hPa | 0 mm | - | 904 W/m² | - |
| 1787504567 | 25° C | 81% | 1012 hPa | 0 mm | - | 812 W/m² | - |
| 1787504262 | 24.44° C | 82% | 1011.8 hPa | 0 mm | - | 837 W/m² | - |
| 1787503958 | 24.44° C | 84% | 1012 hPa | 0 mm | - | 946 W/m² | - |
| 1787503657 | 24.44° C | 84% | 1012.1 hPa | 0 mm | - | 708 W/m² | - |
| 1787503355 | 23.89° C | 86% | 1012.3 hPa | 0 mm | - | 492 W/m² | - |
* Rain latest hour (hover to see other rain measurements)
** Current wind speed in m/s (hover to see current wind gust speed)